createdAt,value
2019-03-15T00:00:31.554Z,1.90
2019-03-15T00:03:04.451Z,2.20
2019-03-15T00:05:39.112Z,2.30
2019-03-15T00:08:11.958Z,2.27
2019-03-15T00:10:42.289Z,1.67
2019-03-15T00:13:12.776Z,2.07
2019-03-15T00:15:44.539Z,3.00
2019-03-15T00:18:15.474Z,3.70
2019-03-15T00:20:47.333Z,2.70
2019-03-15T00:23:22.016Z,2.50
2019-03-15T00:25:56.312Z,2.80
2019-03-15T00:28:29.677Z,3.00
2019-03-15T00:31:04.845Z,3.13
2019-03-15T00:33:35.768Z,2.67
2019-03-15T00:36:07.891Z,3.00
2019-03-15T00:38:39.751Z,2.80
2019-03-15T00:41:12.676Z,3.00
2019-03-15T00:43:49.062Z,3.30
2019-03-15T00:46:18.910Z,2.80
2019-03-15T00:48:51.475Z,2.67
2019-03-15T00:51:24.117Z,2.60
2019-03-15T00:53:56.942Z,2.23
2019-03-15T00:56:31.581Z,2.60
2019-03-15T00:59:04.953Z,2.40
2019-03-15T01:01:36.024Z,2.50
2019-03-15T01:04:09.635Z,2.60
2019-03-15T01:06:41.607Z,2.47
2019-03-15T01:09:14.585Z,2.53
2019-03-15T01:11:45.806Z,2.37
2019-03-15T01:14:18.750Z,2.60
2019-03-15T01:16:58.902Z,3.00
2019-03-15T01:19:29.952Z,2.70
2019-03-15T01:22:03.441Z,3.20
2019-03-15T01:24:36.090Z,2.47
2019-03-15T01:27:09.530Z,2.80
2019-03-15T01:29:44.105Z,2.67
2019-03-15T01:32:16.782Z,2.60
2019-03-15T01:34:50.935Z,2.20
2019-03-15T01:37:24.102Z,3.20
2019-03-15T01:39:56.854Z,2.63
2019-03-15T01:42:29.721Z,2.70
2019-03-15T01:45:09.120Z,2.70
2019-03-15T01:47:45.483Z,2.30
2019-03-15T01:50:17.520Z,2.70
2019-03-15T01:52:50.511Z,3.00
2019-03-15T01:55:23.255Z,2.83
2019-03-15T01:57:54.751Z,2.90
2019-03-15T02:00:27.782Z,1.97
2019-03-15T02:03:02.517Z,1.63
2019-03-15T02:05:35.541Z,0.90
2019-03-15T02:08:13.197Z,1.53
2019-03-15T02:10:47.143Z,1.30
2019-03-15T02:13:20.671Z,1.20
2019-03-15T02:15:53.541Z,1.60
2019-03-15T02:18:26.387Z,2.07
2019-03-15T02:21:00.020Z,2.07
2019-03-15T02:23:33.037Z,1.87
2019-03-15T02:26:05.153Z,2.13
2019-03-15T02:28:37.965Z,3.27
2019-03-15T02:31:10.154Z,1.80
2019-03-15T02:33:42.708Z,3.17
2019-03-15T02:36:15.146Z,2.90
2019-03-15T02:38:48.836Z,2.80
2019-03-15T02:41:22.515Z,2.17
2019-03-15T02:43:55.194Z,3.03
2019-03-15T02:46:30.193Z,2.50
2019-03-15T02:49:04.030Z,2.60
2019-03-15T02:51:36.750Z,3.10
2019-03-15T02:54:11.909Z,3.20
2019-03-15T02:56:47.747Z,3.17
2019-03-15T02:59:21.011Z,2.67
2019-03-15T03:01:52.231Z,2.90
2019-03-15T03:04:25.646Z,2.50
2019-03-15T03:06:58.174Z,2.47
2019-03-15T03:09:30.257Z,3.17
2019-03-15T03:12:02.166Z,2.87
2019-03-15T03:14:34.063Z,2.97
2019-03-15T03:17:05.918Z,2.87
2019-03-15T03:19:38.201Z,2.97
2019-03-15T03:22:11.400Z,2.90
2019-03-15T03:24:43.742Z,2.50
2019-03-15T03:27:18.242Z,3.17
2019-03-15T03:29:51.325Z,2.67
2019-03-15T03:32:25.514Z,3.03
2019-03-15T03:34:59.481Z,2.70
2019-03-15T03:37:32.362Z,4.03
2019-03-15T03:40:09.185Z,2.83
2019-03-15T03:42:44.223Z,3.33
2019-03-15T03:45:18.778Z,3.07
2019-03-15T03:47:50.437Z,2.80
2019-03-15T03:50:23.129Z,3.63
2019-03-15T03:52:56.977Z,3.00
2019-03-15T03:55:28.418Z,2.70
2019-03-15T03:58:02.360Z,3.53
2019-03-15T04:00:35.643Z,3.27
2019-03-15T04:03:08.574Z,3.10
2019-03-15T04:05:41.406Z,3.17
2019-03-15T04:08:15.775Z,2.80
2019-03-15T04:10:49.939Z,3.00
2019-03-15T04:13:22.810Z,2.90
2019-03-15T04:15:58.098Z,3.07
2019-03-15T04:18:31.939Z,2.93
2019-03-15T04:21:04.538Z,3.40
2019-03-15T04:23:38.875Z,2.53
2019-03-15T04:26:11.227Z,2.77
2019-03-15T04:28:44.858Z,3.30
2019-03-15T04:31:18.546Z,3.40
2019-03-15T04:33:51.422Z,3.23
2019-03-15T04:36:25.256Z,3.00
2019-03-15T04:39:02.502Z,2.87
2019-03-15T04:41:36.853Z,2.80
2019-03-15T04:44:09.290Z,3.20
2019-03-15T04:46:41.108Z,2.90
2019-03-15T04:49:14.982Z,3.10
2019-03-15T04:51:50.912Z,2.50
2019-03-15T04:54:22.097Z,2.73
2019-03-15T04:56:56.549Z,6.63
2019-03-15T04:59:32.639Z,49.47
2019-03-15T05:02:10.962Z,62.07
2019-03-15T05:04:44.203Z,17.03
2019-03-15T05:07:19.122Z,6.30
2019-03-15T05:09:52.048Z,6.10
2019-03-15T05:12:26.907Z,3.50
2019-03-15T05:15:00.703Z,3.73
2019-03-15T05:17:34.187Z,5.80
2019-03-15T05:20:08.972Z,5.83
2019-03-15T05:22:43.649Z,4.47
2019-03-15T05:25:15.168Z,4.27
2019-03-15T05:27:46.322Z,2.73
2019-03-15T05:30:19.444Z,4.27
2019-03-15T05:32:52.529Z,3.93
2019-03-15T05:35:42.119Z,6.90
2019-03-15T05:38:17.483Z,4.03
2019-03-15T05:40:50.018Z,3.40
2019-03-15T05:43:28.572Z,3.17
2019-03-15T05:46:02.511Z,2.00
2019-03-15T05:48:34.766Z,2.80
2019-03-15T05:51:07.812Z,3.07
2019-03-15T05:53:41.843Z,3.00
2019-03-15T05:56:14.187Z,3.00
2019-03-15T05:58:50.188Z,3.37
2019-03-15T06:01:22.295Z,3.17
2019-03-15T06:03:53.366Z,3.17
2019-03-15T06:06:29.146Z,1.87
2019-03-15T06:09:07.771Z,1.43
2019-03-15T06:11:39.064Z,1.60
2019-03-15T06:14:10.537Z,3.43
2019-03-15T06:16:41.429Z,4.47
2019-03-15T06:19:27.863Z,4.37
2019-03-15T06:22:04.355Z,4.47
2019-03-15T06:24:37.834Z,3.10
2019-03-15T06:27:11.792Z,2.90
2019-03-15T06:29:48.679Z,2.50
2019-03-15T06:32:20.980Z,3.07
2019-03-15T06:34:51.681Z,2.47
2019-03-15T06:37:25.826Z,2.87
2019-03-15T06:39:56.965Z,2.07
2019-03-15T06:42:31.523Z,2.93
2019-03-15T06:45:05.284Z,2.97
2019-03-15T06:47:38.141Z,8.50
2019-03-15T06:50:09.023Z,9.67
2019-03-15T06:52:41.584Z,22.80
2019-03-15T06:55:12.549Z,8.43
2019-03-15T06:57:43.291Z,2.77
2019-03-15T07:00:16.436Z,1.80
2019-03-15T07:02:47.845Z,2.40
2019-03-15T07:05:20.085Z,2.57
2019-03-15T07:07:55.877Z,2.50
2019-03-15T07:10:27.617Z,1.90
2019-03-15T07:12:59.661Z,2.17
2019-03-15T07:15:30.780Z,2.30
2019-03-15T07:18:00.905Z,2.70
2019-03-15T07:20:32.708Z,2.57
2019-03-15T07:23:03.486Z,1.80
2019-03-15T07:25:33.895Z,2.43
2019-03-15T07:28:04.010Z,2.10
2019-03-15T07:30:54.907Z,2.53
2019-03-15T07:33:26.161Z,2.07
2019-03-15T07:35:59.585Z,2.30
2019-03-15T07:38:30.978Z,2.20
2019-03-15T07:41:01.757Z,2.30
2019-03-15T07:43:32.833Z,2.20
2019-03-15T07:46:07.961Z,1.30
2019-03-15T07:48:38.611Z,2.40
2019-03-15T07:51:11.072Z,2.47
2019-03-15T07:53:43.689Z,3.70
2019-03-15T07:56:15.652Z,2.50
2019-03-15T07:58:45.816Z,2.10
2019-03-15T08:01:18.116Z,1.43
2019-03-15T08:03:49.876Z,2.03
2019-03-15T08:06:33.822Z,2.20
2019-03-15T08:08:58.582Z,2.50
2019-03-15T08:11:29.522Z,2.53
2019-03-15T08:14:00.821Z,7.73
2019-03-15T08:16:34.674Z,2.33
2019-03-15T08:19:05.999Z,2.60
2019-03-15T08:21:36.343Z,2.27
2019-03-15T08:24:09.538Z,2.50
2019-03-15T08:26:42.531Z,1.90
2019-03-15T08:29:12.873Z,4.00
2019-03-15T08:31:43.275Z,2.40
2019-03-15T08:34:14.422Z,2.20
2019-03-15T08:36:44.635Z,2.23
2019-03-15T08:39:15.561Z,2.63
2019-03-15T08:41:49.643Z,1.90
2019-03-15T08:44:21.090Z,1.87
2019-03-15T08:46:54.309Z,2.20
2019-03-15T08:49:24.564Z,2.00
2019-03-15T08:52:03.747Z,2.77
2019-03-15T08:54:32.402Z,2.03
2019-03-15T08:57:04.449Z,2.10
2019-03-15T08:59:37.016Z,2.37
2019-03-15T09:02:07.923Z,2.20
2019-03-15T09:04:38.210Z,2.47
2019-03-15T09:07:10.018Z,2.00
2019-03-15T09:09:54.911Z,2.17
2019-03-15T09:12:33.201Z,2.37
2019-03-15T09:15:09.943Z,2.17
2019-03-15T09:18:02.688Z,2.00
2019-03-15T09:20:52.879Z,2.10
2019-03-15T09:23:38.794Z,2.53
2019-03-15T09:26:24.408Z,2.37
2019-03-15T09:29:05.259Z,1.70
2019-03-15T09:31:49.208Z,1.93
2019-03-15T09:34:28.055Z,1.60
2019-03-15T09:36:59.069Z,2.73
2019-03-15T09:39:44.326Z,1.97
2019-03-15T09:42:26.592Z,2.17
2019-03-15T09:45:02.139Z,2.07
2019-03-15T09:47:48.640Z,2.17
2019-03-15T09:50:36.170Z,2.40
2019-03-15T09:53:05.935Z,2.30
2019-03-15T09:55:55.206Z,1.97
2019-03-15T09:58:32.909Z,1.80
2019-03-15T10:01:34.206Z,2.07
2019-03-15T10:03:58.840Z,2.07
2019-03-15T10:06:33.685Z,1.50
2019-03-15T10:09:16.823Z,2.70
2019-03-15T10:11:56.436Z,1.43
2019-03-15T10:14:35.232Z,1.27
2019-03-15T10:17:16.893Z,1.50
2019-03-15T10:19:50.171Z,2.17
2019-03-15T10:22:33.588Z,1.40
2019-03-15T10:25:21.063Z,1.80
2019-03-15T10:28:05.395Z,2.33
2019-03-15T10:30:40.122Z,2.33
2019-03-15T10:33:24.865Z,2.07
2019-03-15T10:35:59.235Z,1.93
2019-03-15T10:38:47.390Z,2.00
2019-03-15T10:41:24.343Z,2.30
2019-03-15T10:44:04.242Z,1.97
2019-03-15T10:50:07.707Z,1.90
2019-03-15T10:52:42.329Z,2.60
2019-03-15T10:55:12.927Z,1.83
2019-03-15T10:57:43.434Z,1.77
2019-03-15T11:00:20.752Z,2.30
2019-03-15T11:02:50.856Z,2.33
2019-03-15T11:05:20.920Z,2.13
2019-03-15T11:07:53.433Z,2.20
2019-03-15T11:10:24.073Z,2.30
2019-03-15T11:12:55.589Z,2.43
2019-03-15T11:15:26.621Z,2.33
2019-03-15T11:17:57.414Z,2.80
2019-03-15T11:20:27.984Z,2.37
2019-03-15T11:22:58.531Z,2.63
2019-03-15T11:25:32.667Z,1.70
2019-03-15T11:28:03.169Z,2.37
2019-03-15T11:30:34.454Z,2.37
2019-03-15T11:33:04.778Z,2.00
2019-03-15T11:35:37.824Z,2.17
2019-03-15T11:38:08.413Z,2.20
2019-03-15T11:40:39.512Z,2.00
2019-03-15T11:43:09.735Z,2.30
2019-03-15T11:45:39.846Z,1.73
2019-03-15T11:48:10.810Z,2.17
2019-03-15T11:50:41.891Z,1.93
2019-03-15T11:53:13.222Z,2.00
2019-03-15T11:55:44.854Z,2.10
2019-03-15T11:58:15.456Z,1.60
2019-03-15T12:00:48.109Z,2.40
2019-03-15T12:03:19.936Z,1.50
2019-03-15T12:05:50.668Z,2.23
2019-03-15T12:08:21.353Z,2.30
2019-03-15T12:10:52.739Z,2.70
2019-03-15T12:13:23.446Z,2.30
2019-03-15T12:15:55.346Z,2.63
2019-03-15T12:18:26.947Z,2.30
2019-03-15T12:20:59.823Z,2.40
2019-03-15T12:23:31.798Z,2.70
2019-03-15T12:26:05.396Z,1.97
2019-03-15T12:28:36.126Z,1.93
2019-03-15T12:31:06.253Z,2.37
2019-03-15T12:33:36.260Z,2.40
2019-03-15T12:36:11.162Z,2.30
2019-03-15T12:38:41.169Z,2.30
2019-03-15T12:41:11.315Z,2.30
2019-03-15T12:43:45.033Z,2.70
2019-03-15T12:46:17.937Z,2.70
2019-03-15T12:48:48.371Z,2.50
2019-03-15T12:51:31.480Z,2.27
2019-03-15T12:53:51.165Z,2.37
2019-03-15T12:56:21.221Z,2.80
2019-03-15T12:58:51.659Z,2.20
2019-03-15T13:01:21.943Z,2.50
2019-03-15T13:03:52.182Z,1.80
2019-03-15T13:06:22.439Z,2.20
2019-03-15T13:08:55.327Z,2.17
2019-03-15T13:11:30.182Z,1.77
2019-03-15T13:14:05.496Z,2.37
2019-03-15T13:16:35.563Z,1.83
2019-03-15T13:19:06.039Z,2.20
2019-03-15T13:21:36.389Z,2.10
2019-03-15T13:24:09.859Z,2.50
2019-03-15T13:26:40.566Z,2.50
2019-03-15T13:29:10.815Z,2.20
2019-03-15T13:31:44.594Z,2.60
2019-03-15T13:34:14.960Z,2.70
2019-03-15T13:36:45.802Z,1.83
2019-03-15T13:39:16.931Z,2.17
2019-03-15T13:41:47.219Z,2.17
2019-03-15T13:44:18.074Z,1.87
2019-03-15T13:46:48.831Z,2.33
2019-03-15T13:49:23.906Z,2.00
2019-03-15T13:51:58.334Z,2.27
2019-03-15T13:54:30.405Z,2.30
2019-03-15T13:57:20.671Z,1.93
2019-03-15T13:59:47.550Z,2.20
2019-03-15T14:02:21.393Z,2.33
2019-03-15T14:04:53.053Z,1.83
2019-03-15T14:07:25.727Z,2.10
2019-03-15T14:09:57.575Z,3.33
2019-03-15T14:12:29.038Z,2.00
2019-03-15T14:15:00.204Z,2.43
2019-03-15T14:17:33.358Z,2.17
2019-03-15T14:20:05.619Z,1.97
2019-03-15T14:22:38.199Z,2.20
2019-03-15T14:25:21.217Z,1.90
2019-03-15T14:27:53.912Z,2.03
2019-03-15T14:30:27.499Z,1.90
2019-03-15T14:33:00.355Z,1.80
2019-03-15T14:35:33.729Z,2.03
2019-03-15T14:38:07.148Z,2.20
2019-03-15T14:40:47.481Z,2.13
2019-03-15T14:43:39.769Z,1.73
2019-03-15T14:46:12.969Z,2.17
2019-03-15T14:48:43.206Z,1.37
2019-03-15T14:51:15.851Z,1.90
2019-03-15T14:53:49.377Z,1.50
2019-03-15T14:56:20.295Z,2.50
2019-03-15T14:58:51.631Z,1.70
2019-03-15T15:01:24.402Z,1.90
2019-03-15T15:03:59.148Z,1.80
2019-03-15T15:06:29.882Z,2.20
2019-03-15T15:09:02.442Z,2.13
2019-03-15T15:11:34.565Z,2.30
2019-03-15T15:14:05.036Z,2.37
2019-03-15T15:16:38.170Z,3.97
2019-03-15T15:19:09.322Z,2.27
2019-03-15T15:21:41.763Z,3.37
2019-03-15T15:24:12.396Z,3.40
2019-03-15T15:26:43.418Z,4.00
2019-03-15T15:29:13.719Z,2.87
2019-03-15T15:31:47.932Z,5.23
2019-03-15T15:34:20.162Z,5.97
2019-03-15T15:36:52.188Z,4.27
2019-03-15T15:39:22.841Z,2.60
2019-03-15T15:41:54.258Z,2.83
2019-03-15T15:44:25.520Z,2.30
2019-03-15T15:46:57.049Z,4.27
2019-03-15T15:49:29.325Z,4.40
2019-03-15T15:52:00.468Z,4.77
2019-03-15T15:54:30.978Z,2.43
2019-03-15T15:57:02.840Z,2.40
2019-03-15T15:59:33.487Z,2.30
2019-03-15T16:02:04.211Z,2.97
2019-03-15T16:04:34.927Z,2.63
2019-03-15T16:07:08.129Z,2.10
2019-03-15T16:09:38.779Z,3.23
2019-03-15T16:12:10.521Z,5.57
2019-03-15T16:14:42.557Z,3.10
2019-03-15T16:17:17.047Z,3.30
2019-03-15T16:19:50.091Z,2.93
2019-03-15T16:22:20.612Z,2.00
2019-03-15T16:24:54.249Z,1.60
2019-03-15T16:27:25.923Z,5.13
2019-03-15T16:29:58.173Z,2.87
2019-03-15T16:32:30.600Z,2.30
2019-03-15T16:35:01.547Z,2.90
2019-03-15T16:37:32.034Z,4.50
2019-03-15T16:40:04.418Z,3.70
2019-03-15T16:42:35.102Z,3.13
2019-03-15T16:45:11.165Z,2.73
2019-03-15T16:47:41.875Z,2.53
2019-03-15T16:50:13.900Z,2.23
2019-03-15T16:52:45.078Z,3.60
2019-03-15T16:55:17.455Z,5.40
2019-03-15T16:57:48.486Z,7.80
2019-03-15T17:00:20.292Z,8.00
2019-03-15T17:02:51.274Z,7.67
2019-03-15T17:05:22.836Z,2.50
2019-03-15T17:07:53.352Z,2.40
2019-03-15T17:10:24.888Z,1.87
2019-03-15T17:12:56.541Z,2.13
2019-03-15T17:15:47.681Z,1.83
2019-03-15T17:18:28.400Z,2.10
2019-03-15T17:20:59.555Z,2.37
2019-03-15T17:23:32.674Z,2.23
2019-03-15T17:26:03.107Z,2.50
2019-03-15T17:28:35.112Z,2.30
2019-03-15T17:31:10.419Z,2.57
2019-03-15T17:33:43.465Z,2.60
2019-03-15T17:36:15.204Z,2.37
2019-03-15T17:38:47.294Z,2.37
2019-03-15T17:41:18.074Z,2.17
2019-03-15T17:43:48.221Z,2.00
2019-03-15T17:46:19.607Z,3.37
2019-03-15T17:48:50.612Z,1.87
2019-03-15T17:51:21.806Z,1.83
2019-03-15T17:53:54.262Z,1.60
2019-03-15T17:56:25.639Z,8.53
2019-03-15T17:59:11.575Z,4.17
2019-03-15T18:01:35.815Z,5.03
2019-03-15T18:04:14.010Z,1.77
2019-03-15T18:06:43.705Z,3.30
2019-03-15T18:09:13.823Z,3.93
2019-03-15T18:11:45.948Z,3.20
2019-03-15T18:14:18.665Z,6.10
2019-03-15T18:16:50.446Z,1.60
2019-03-15T18:19:22.043Z,1.70
2019-03-15T18:21:53.183Z,1.40
2019-03-15T18:24:29.531Z,1.80
2019-03-15T18:27:00.953Z,2.27
2019-03-15T18:29:31.831Z,1.57
2019-03-15T18:32:02.553Z,2.07
2019-03-15T18:34:33.674Z,1.90
2019-03-15T18:37:08.504Z,1.50
2019-03-15T18:39:40.661Z,1.57
2019-03-15T18:42:14.261Z,1.80
2019-03-15T18:44:47.857Z,1.33
2019-03-15T18:47:20.454Z,1.73
2019-03-15T18:49:51.177Z,1.50
2019-03-15T18:52:23.424Z,2.00
2019-03-15T18:54:55.171Z,2.10
2019-03-15T18:57:26.395Z,1.90
2019-03-15T18:59:57.569Z,2.70
2019-03-15T19:02:28.165Z,2.97
2019-03-15T19:05:00.374Z,2.30
2019-03-15T19:07:35.397Z,2.10
2019-03-15T19:10:12.733Z,2.60
2019-03-15T19:12:43.674Z,3.23
2019-03-15T19:15:21.205Z,2.53
2019-03-15T19:17:54.241Z,2.60
2019-03-15T19:20:29.051Z,2.33
2019-03-15T19:23:00.211Z,2.90
2019-03-15T19:25:35.405Z,2.77
2019-03-15T19:28:10.207Z,2.67
2019-03-15T19:30:44.104Z,4.60
2019-03-15T19:33:17.020Z,3.40
2019-03-15T19:35:49.966Z,2.80
2019-03-15T19:38:24.287Z,2.30
2019-03-15T19:41:04.919Z,2.63
2019-03-15T19:43:56.465Z,2.50
2019-03-15T19:46:28.863Z,2.40
2019-03-15T19:49:00.383Z,2.50
2019-03-15T19:51:33.190Z,2.33
2019-03-15T19:54:08.319Z,1.83
2019-03-15T19:56:39.913Z,3.07
2019-03-15T20:02:00.439Z,2.33
2019-03-15T20:04:33.039Z,2.50
2019-03-15T20:07:05.047Z,2.70
2019-03-15T20:09:37.571Z,2.90
2019-03-15T20:12:09.482Z,2.50
2019-03-15T20:14:41.702Z,3.40
2019-03-15T20:17:14.061Z,2.23
2019-03-15T20:19:47.274Z,2.77
2019-03-15T20:22:22.331Z,2.40
2019-03-15T20:24:57.955Z,2.43
2019-03-15T20:27:31.894Z,2.87
2019-03-15T20:30:20.212Z,2.63
2019-03-15T20:32:39.465Z,2.90
2019-03-15T20:35:11.851Z,2.53
2019-03-15T20:37:47.897Z,2.63
2019-03-15T20:40:19.866Z,2.93
2019-03-15T20:43:02.587Z,2.47
2019-03-15T20:45:41.633Z,2.23
2019-03-15T20:48:18.400Z,2.03
2019-03-15T20:50:51.540Z,2.30
2019-03-15T20:53:23.015Z,2.40
2019-03-15T20:55:57.409Z,2.60
2019-03-15T20:58:30.259Z,2.27
2019-03-15T21:01:02.928Z,2.20
2019-03-15T21:03:38.617Z,2.27
2019-03-15T21:06:10.465Z,1.80
2019-03-15T21:08:42.236Z,2.30
2019-03-15T21:11:14.130Z,2.50
2019-03-15T21:13:45.372Z,2.67
2019-03-15T21:16:18.212Z,2.77
2019-03-15T21:18:48.693Z,2.30
2019-03-15T21:21:21.308Z,2.27
2019-03-15T21:23:53.432Z,2.30
2019-03-15T21:26:24.752Z,2.30
2019-03-15T21:28:58.692Z,2.63
2019-03-15T21:31:32.948Z,2.97
2019-03-15T21:34:06.071Z,2.27
2019-03-15T21:36:37.486Z,2.20
2019-03-15T21:39:10.433Z,2.77
2019-03-15T21:41:46.339Z,2.60
2019-03-15T21:44:23.232Z,2.80
2019-03-15T21:46:56.168Z,3.17
2019-03-15T21:49:35.442Z,2.97
2019-03-15T21:52:06.873Z,2.33
2019-03-15T21:54:38.430Z,2.50
2019-03-15T21:57:12.434Z,2.50
2019-03-15T21:59:43.300Z,3.03
2019-03-15T22:02:15.857Z,1.90
2019-03-15T22:04:50.511Z,2.77
2019-03-15T22:07:27.485Z,2.20
2019-03-15T22:10:01.862Z,2.20
2019-03-15T22:12:35.092Z,2.90
2019-03-15T22:15:09.923Z,2.57
2019-03-15T22:17:44.992Z,2.63
2019-03-15T22:20:20.023Z,2.60
2019-03-15T22:22:52.933Z,2.63
2019-03-15T22:25:24.855Z,2.90
2019-03-15T22:28:05.971Z,3.17
2019-03-15T22:30:45.128Z,3.20
2019-03-15T22:33:41.423Z,3.20
2019-03-15T22:36:12.205Z,3.03
2019-03-15T22:38:46.343Z,3.40
2019-03-15T22:41:36.932Z,2.83
2019-03-15T22:44:23.682Z,2.87
2019-03-15T22:46:59.126Z,3.03
2019-03-15T22:49:29.921Z,3.53
2019-03-15T22:52:01.702Z,2.37
2019-03-15T22:54:33.347Z,2.47
2019-03-15T22:57:06.846Z,3.27
2019-03-15T22:59:41.740Z,2.87
2019-03-15T23:02:15.333Z,2.80
2019-03-15T23:04:51.235Z,3.13
2019-03-15T23:07:26.250Z,3.20
2019-03-15T23:10:00.385Z,2.97
2019-03-15T23:12:46.605Z,3.33
2019-03-15T23:15:26.485Z,3.27
2019-03-15T23:18:05.906Z,3.10
2019-03-15T23:20:38.074Z,3.10
2019-03-15T23:23:23.781Z,3.43
2019-03-15T23:25:55.213Z,3.20
2019-03-15T23:28:33.003Z,3.20
2019-03-15T23:31:06.169Z,3.57
2019-03-15T23:33:48.394Z,3.27
2019-03-15T23:36:28.162Z,3.53
2019-03-15T23:39:10.026Z,3.33
2019-03-15T23:41:55.256Z,3.33
2019-03-15T23:44:32.643Z,3.30
2019-03-15T23:47:08.969Z,3.40
2019-03-15T23:50:14.558Z,2.97
2019-03-15T23:52:54.457Z,3.40
2019-03-15T23:55:30.447Z,3.47
2019-03-15T23:58:12.252Z,3.80
